createdAt,value
2016-11-18T00:00:09.495Z,0
2016-11-18T00:01:19.892Z,0
2016-11-18T00:02:29.968Z,0
2016-11-18T00:03:40.009Z,0
2016-11-18T00:04:49.717Z,0
2016-11-18T00:06:00.064Z,0
2016-11-18T00:07:10.454Z,0
2016-11-18T00:08:20.802Z,0
2016-11-18T00:09:30.818Z,0
2016-11-18T00:10:41.423Z,0
2016-11-18T00:11:51.446Z,0
2016-11-18T00:13:01.789Z,0
2016-11-18T00:14:11.825Z,0
2016-11-18T00:15:21.878Z,0
2016-11-18T00:16:31.890Z,0
2016-11-18T00:17:41.931Z,0
2016-11-18T00:18:52.308Z,0
2016-11-18T00:20:02.637Z,0
2016-11-18T00:21:12.975Z,0
2016-11-18T00:22:23.011Z,0
2016-11-18T00:23:33.360Z,0
2016-11-18T00:24:43.699Z,0
2016-11-18T00:25:53.749Z,0
2016-11-18T00:27:04.080Z,0
2016-11-18T00:28:14.098Z,0
2016-11-18T00:29:24.099Z,0
2016-11-18T00:30:34.119Z,0
2016-11-18T00:31:44.464Z,0
2016-11-18T00:32:54.803Z,0
2016-11-18T00:34:04.835Z,0
2016-11-18T00:35:14.868Z,0
2016-11-18T00:36:25.200Z,0
2016-11-18T00:37:34.998Z,0
2016-11-18T00:38:45.359Z,0
2016-11-18T00:39:55.718Z,0
2016-11-18T00:41:06.070Z,0
2016-11-18T00:42:16.417Z,0
2016-11-18T00:43:26.751Z,0
2016-11-18T00:44:36.806Z,0
2016-11-18T00:45:47.155Z,0
2016-11-18T00:46:57.500Z,0
2016-11-18T00:48:07.516Z,0
2016-11-18T00:49:17.844Z,0
2016-11-18T00:50:27.914Z,0
2016-11-18T00:51:37.936Z,0
2016-11-18T00:52:48.272Z,0
2016-11-18T00:53:58.326Z,0
2016-11-18T00:55:08.655Z,0
2016-11-18T00:56:18.989Z,0
2016-11-18T00:57:29.328Z,0
2016-11-18T00:58:39.366Z,0
2016-11-18T00:59:49.403Z,0
2016-11-18T01:00:59.420Z,0
2016-11-18T01:02:09.740Z,0
2016-11-18T01:03:19.778Z,0
2016-11-18T01:04:29.489Z,0
2016-11-18T01:05:39.501Z,0
2016-11-18T01:06:49.512Z,0
2016-11-18T01:07:59.537Z,0
2016-11-18T01:09:09.871Z,0
2016-11-18T01:10:19.894Z,0
2016-11-18T01:11:30.231Z,0
2016-11-18T01:12:40.253Z,0
2016-11-18T01:13:50.576Z,0
2016-11-18T01:15:00.285Z,0
2016-11-18T01:16:10.321Z,0
2016-11-18T01:17:20.649Z,0
2016-11-18T01:18:31.045Z,0
2016-11-18T01:19:41.387Z,0
2016-11-18T01:20:51.726Z,0
2016-11-18T01:22:02.066Z,0
2016-11-18T01:23:12.397Z,0
2016-11-18T01:24:22.112Z,0
2016-11-18T01:25:32.131Z,0
2016-11-18T01:26:42.138Z,0
2016-11-18T01:27:52.486Z,0
2016-11-18T01:29:02.839Z,0
2016-11-18T01:30:13.158Z,0
2016-11-18T01:31:23.183Z,0
2016-11-18T01:32:33.512Z,0
2016-11-18T01:33:43.853Z,0
2016-11-18T01:34:53.875Z,0
2016-11-18T01:36:04.210Z,0
2016-11-18T01:37:14.232Z,0
2016-11-18T01:38:24.560Z,0
2016-11-18T01:39:34.590Z,0
2016-11-18T01:40:44.927Z,0
2016-11-18T01:41:55.269Z,0
2016-11-18T01:43:05.607Z,0
2016-11-18T01:44:15.948Z,0
2016-11-18T01:45:26.269Z,0
2016-11-18T01:46:36.310Z,0
2016-11-18T01:47:46.644Z,0
2016-11-18T01:48:57.015Z,0
2016-11-18T01:50:07.027Z,0
2016-11-18T01:51:17.370Z,0
2016-11-18T01:52:27.709Z,0
2016-11-18T01:53:38.041Z,0
2016-11-18T01:54:48.059Z,0
2016-11-18T01:55:58.395Z,0
2016-11-18T01:57:08.732Z,0
2016-11-18T01:58:19.064Z,0
2016-11-18T01:59:29.386Z,0
2016-11-18T02:00:39.727Z,0
2016-11-18T02:01:49.758Z,0
2016-11-18T02:02:59.765Z,0
2016-11-18T02:04:09.813Z,0
2016-11-18T02:05:20.139Z,0
2016-11-18T02:06:30.461Z,0
2016-11-18T02:07:40.822Z,0
2016-11-18T02:08:51.157Z,0
2016-11-18T02:10:01.519Z,0
2016-11-18T02:11:11.847Z,0
2016-11-18T02:12:22.222Z,0
2016-11-18T02:13:32.243Z,0
2016-11-18T02:14:42.587Z,0
2016-11-18T02:15:52.954Z,0
2016-11-18T02:17:03.293Z,0
2016-11-18T02:18:13.627Z,0
2016-11-18T02:19:23.956Z,0
2016-11-18T02:20:34.296Z,0
2016-11-18T02:21:44.633Z,0
2016-11-18T02:22:54.973Z,0
2016-11-18T02:24:05.305Z,0
2016-11-18T02:25:15.637Z,0
2016-11-18T02:26:25.963Z,0
2016-11-18T02:27:36.289Z,0
2016-11-18T02:28:46.613Z,0
2016-11-18T02:29:56.950Z,0
2016-11-18T02:31:07.280Z,0
2016-11-18T02:32:17.607Z,0
2016-11-18T02:33:27.935Z,0
2016-11-18T02:34:38.271Z,0
2016-11-18T02:35:48.608Z,0
2016-11-18T02:36:58.928Z,0
2016-11-18T02:38:08.941Z,0
2016-11-18T02:39:19.002Z,0
2016-11-18T02:40:29.038Z,0
2016-11-18T02:41:39.385Z,0
2016-11-18T02:42:49.711Z,0
2016-11-18T02:44:00.079Z,0
2016-11-18T02:45:10.400Z,0
2016-11-18T02:46:19.801Z,0
2016-11-18T02:47:30.140Z,0
2016-11-18T02:48:40.163Z,0
2016-11-18T02:49:50.523Z,0
2016-11-18T02:51:00.859Z,0
2016-11-18T02:52:11.200Z,0
2016-11-18T02:53:21.217Z,0
2016-11-18T02:54:31.240Z,0
2016-11-18T02:55:41.575Z,0
2016-11-18T02:56:51.904Z,0
2016-11-18T02:58:01.939Z,0
2016-11-18T02:59:12.265Z,0
2016-11-18T03:00:22.587Z,0
2016-11-18T03:01:32.934Z,0
2016-11-18T03:32:50.177Z,0
2016-11-18T03:34:00.513Z,0
2016-11-18T03:35:10.837Z,0
2016-11-18T03:36:21.151Z,0
2016-11-18T03:37:31.465Z,0
2016-11-18T03:38:41.807Z,0
2016-11-18T03:39:52.128Z,0
2016-11-18T03:41:02.492Z,0
2016-11-18T03:42:11.882Z,0
2016-11-18T03:43:22.212Z,0
2016-11-18T03:44:32.225Z,0
2016-11-18T03:45:42.241Z,0
2016-11-18T03:46:52.584Z,0
2016-11-18T03:48:02.920Z,0
2016-11-18T03:49:13.258Z,0
2016-11-18T03:50:23.583Z,0
2016-11-18T03:51:33.943Z,0
2016-11-18T03:52:44.280Z,0
2016-11-18T03:53:54.603Z,0
2016-11-18T03:55:04.956Z,0
2016-11-18T03:56:15.205Z,0
2016-11-18T03:57:25.551Z,0
2016-11-18T03:58:35.888Z,0
2016-11-18T03:59:46.215Z,0
2016-11-18T04:00:56.274Z,0
2016-11-18T04:02:06.594Z,0
2016-11-18T04:03:16.640Z,0
2016-11-18T04:04:26.669Z,0
2016-11-18T04:05:36.993Z,0
2016-11-18T04:06:47.019Z,0
2016-11-18T04:07:57.041Z,0
2016-11-18T04:09:07.382Z,0
2016-11-18T04:10:17.719Z,0
2016-11-18T04:11:28.046Z,0
2016-11-18T04:12:38.363Z,0
2016-11-18T04:13:48.799Z,0
2016-11-18T04:14:59.137Z,0
2016-11-18T04:16:09.155Z,0
2016-11-18T04:17:19.510Z,0
2016-11-18T04:18:29.841Z,0
2016-11-18T04:19:40.170Z,0
2016-11-18T04:20:50.492Z,0
2016-11-18T04:22:00.831Z,0
2016-11-18T04:23:11.165Z,0
2016-11-18T04:24:21.506Z,0
2016-11-18T04:25:31.526Z,0
2016-11-18T04:26:41.853Z,0
2016-11-18T04:27:51.886Z,0
2016-11-18T04:29:01.897Z,0
2016-11-18T04:30:11.923Z,0
2016-11-18T04:31:22.258Z,0
2016-11-18T04:32:32.573Z,0
2016-11-18T04:33:42.322Z,0
2016-11-18T04:34:52.351Z,0
2016-11-18T04:36:02.683Z,0
2016-11-18T04:37:13.009Z,0
2016-11-18T04:38:23.322Z,0
2016-11-18T04:39:33.667Z,0
2016-11-18T04:40:43.991Z,0
2016-11-18T04:41:54.333Z,0
2016-11-18T04:43:04.355Z,0
2016-11-18T04:44:14.699Z,0
2016-11-18T04:45:25.035Z,0
2016-11-18T04:46:35.047Z,0
2016-11-18T04:47:44.764Z,0
2016-11-18T04:48:55.111Z,0
2016-11-18T04:50:05.429Z,0
2016-11-18T04:51:15.465Z,0
2016-11-18T04:52:25.811Z,0
2016-11-18T04:53:36.143Z,0
2016-11-18T04:54:46.150Z,0
2016-11-18T04:55:56.186Z,0
2016-11-18T04:57:06.213Z,0
2016-11-18T04:58:16.549Z,0
2016-11-18T04:59:26.871Z,0
2016-11-18T05:00:37.192Z,0
2016-11-18T05:01:47.511Z,0
2016-11-18T05:02:57.858Z,0
2016-11-18T05:04:07.878Z,0
2016-11-18T05:05:18.200Z,0
2016-11-18T05:06:28.537Z,0
2016-11-18T05:07:38.858Z,0
2016-11-18T05:08:49.195Z,0
2016-11-18T05:09:59.203Z,0
2016-11-18T05:11:09.544Z,0
2016-11-18T05:12:19.867Z,0
2016-11-18T05:13:30.207Z,0
2016-11-18T05:14:40.530Z,0
2016-11-18T05:15:50.547Z,0
2016-11-18T05:17:00.868Z,0
2016-11-18T05:18:10.575Z,0
2016-11-18T05:19:20.905Z,0
2016-11-18T05:20:30.933Z,0
2016-11-18T05:21:41.520Z,0
2016-11-18T05:22:51.545Z,0
2016-11-18T05:24:01.874Z,0
2016-11-18T05:25:11.895Z,0
2016-11-18T05:26:22.220Z,0
2016-11-18T05:27:32.553Z,0
2016-11-18T05:28:42.909Z,0
2016-11-18T05:29:52.936Z,0
2016-11-18T05:31:02.961Z,0
2016-11-18T05:32:12.986Z,0
2016-11-18T05:33:23.015Z,0
2016-11-18T05:34:33.347Z,0
2016-11-18T05:35:43.725Z,0
2016-11-18T05:36:54.052Z,0
2016-11-18T05:38:04.058Z,0
2016-11-18T05:39:14.090Z,0
2016-11-18T05:40:24.446Z,0
2016-11-18T05:41:34.784Z,4
2016-11-18T05:42:45.203Z,4
2016-11-18T05:43:55.256Z,4
2016-11-18T05:45:05.587Z,0
2016-11-18T05:46:15.630Z,0
2016-11-18T05:47:25.966Z,4
2016-11-18T05:48:36.298Z,4
2016-11-18T05:49:46.671Z,0
2016-11-18T05:50:56.995Z,4
2016-11-18T05:52:07.384Z,4
2016-11-18T05:53:17.706Z,4
2016-11-18T05:54:27.403Z,8
2016-11-18T05:55:37.739Z,8
2016-11-18T05:56:48.070Z,8
2016-11-18T05:57:58.408Z,8
2016-11-18T05:59:08.742Z,8
2016-11-18T06:00:19.066Z,12
2016-11-18T06:01:28.807Z,12
2016-11-18T06:02:39.129Z,12
2016-11-18T06:03:49.460Z,16
2016-11-18T06:04:59.157Z,16
2016-11-18T06:06:09.495Z,20
2016-11-18T06:07:19.536Z,20
2016-11-18T06:08:29.537Z,24
2016-11-18T06:09:39.568Z,20
2016-11-18T06:10:49.272Z,24
2016-11-18T06:11:59.603Z,24
2016-11-18T06:13:09.618Z,28
2016-11-18T06:14:19.966Z,28
2016-11-18T06:15:30.293Z,32
2016-11-18T06:16:40.640Z,36
2016-11-18T06:17:50.961Z,44
2016-11-18T06:19:01.014Z,48
2016-11-18T06:20:11.054Z,48
2016-11-18T06:21:21.386Z,44
2016-11-18T06:22:31.739Z,52
2016-11-18T06:23:41.777Z,56
2016-11-18T06:24:52.111Z,60
2016-11-18T06:26:02.459Z,64
2016-11-18T06:27:12.791Z,68
2016-11-18T06:28:23.172Z,72
2016-11-18T06:29:33.509Z,76
2016-11-18T06:30:43.520Z,76
2016-11-18T06:31:53.533Z,72
2016-11-18T06:33:03.886Z,80
2016-11-18T06:34:14.221Z,96
2016-11-18T06:35:24.558Z,100
2016-11-18T06:36:34.946Z,96
2016-11-18T06:37:45.281Z,96
2016-11-18T06:38:55.308Z,104
2016-11-18T06:40:05.671Z,116
2016-11-18T06:41:16.001Z,128
2016-11-18T06:42:26.009Z,168
2016-11-18T06:43:36.030Z,172
2016-11-18T06:44:46.054Z,164
2016-11-18T06:45:56.413Z,168
2016-11-18T06:47:06.426Z,176
2016-11-18T06:48:16.777Z,192
2016-11-18T06:49:26.803Z,248
2016-11-18T06:50:37.140Z,280
2016-11-18T06:51:47.478Z,276
2016-11-18T06:52:57.603Z,300
2016-11-18T06:54:07.933Z,332
2016-11-18T06:55:18.257Z,344
2016-11-18T06:56:28.599Z,332
2016-11-18T06:57:38.915Z,324
2016-11-18T06:58:48.938Z,324
2016-11-18T06:59:58.970Z,352
2016-11-18T07:01:09.302Z,376
2016-11-18T07:02:19.634Z,416
2016-11-18T07:03:29.974Z,464
2016-11-18T07:04:40.320Z,472
2016-11-18T07:05:50.658Z,488
2016-11-18T07:07:00.673Z,528
2016-11-18T07:08:11.011Z,524
2016-11-18T07:09:21.024Z,460
2016-11-18T07:10:31.371Z,416
2016-11-18T07:11:41.427Z,416
2016-11-18T07:12:51.453Z,416
2016-11-18T07:14:01.836Z,368
2016-11-18T07:15:12.182Z,336
2016-11-18T07:16:22.517Z,364
2016-11-18T07:17:32.538Z,424
2016-11-18T07:18:42.876Z,484
2016-11-18T07:19:53.301Z,524
2016-11-18T07:21:03.323Z,568
2016-11-18T07:22:13.357Z,692
2016-11-18T07:23:23.374Z,776
2016-11-18T07:24:33.701Z,724
2016-11-18T07:25:44.032Z,672
2016-11-18T07:26:54.078Z,608
2016-11-18T07:28:04.425Z,572
2016-11-18T07:29:14.442Z,548
2016-11-18T07:30:24.770Z,532
2016-11-18T07:31:35.106Z,560
2016-11-18T07:32:45.443Z,608
2016-11-18T07:33:55.791Z,636
2016-11-18T07:35:06.130Z,640
2016-11-18T07:36:16.462Z,648
2016-11-18T07:37:26.484Z,688
2016-11-18T07:38:36.836Z,816
2016-11-18T07:39:47.186Z,896
2016-11-18T07:40:57.536Z,992
2016-11-18T07:42:07.561Z,1004
2016-11-18T07:43:17.913Z,1000
2016-11-18T07:44:27.929Z,984
2016-11-18T07:45:37.957Z,936
2016-11-18T07:46:48.288Z,952
2016-11-18T07:47:58.621Z,952
2016-11-18T07:49:08.640Z,996
2016-11-18T07:50:18.977Z,1040
2016-11-18T07:51:29.319Z,1068
2016-11-18T07:52:39.646Z,1136
2016-11-18T07:53:49.664Z,1220
2016-11-18T07:54:59.995Z,1224
2016-11-18T07:56:10.396Z,1196
2016-11-18T07:57:20.127Z,1244
2016-11-18T07:58:30.454Z,1276
2016-11-18T07:59:40.780Z,1240
2016-11-18T08:00:51.122Z,1196
2016-11-18T08:02:01.453Z,1096
2016-11-18T08:03:11.206Z,1140
2016-11-18T08:04:21.224Z,1220
2016-11-18T08:05:31.568Z,1284
2016-11-18T08:06:41.901Z,1180
2016-11-18T08:07:52.234Z,1036
2016-11-18T08:09:02.257Z,1008
2016-11-18T08:10:12.301Z,1080
2016-11-18T08:11:22.324Z,1116
2016-11-18T08:12:32.719Z,1100
2016-11-18T08:13:43.048Z,1104
2016-11-18T08:14:53.058Z,1084
2016-11-18T08:16:03.588Z,1184
2016-11-18T08:17:13.923Z,1220
2016-11-18T08:18:23.938Z,1236
2016-11-18T08:19:34.301Z,1232
2016-11-18T08:20:44.631Z,1304
2016-11-18T08:21:54.956Z,1392
2016-11-18T08:23:05.294Z,1396
2016-11-18T08:24:15.637Z,1468
2016-11-18T08:25:26.000Z,1552
2016-11-18T08:26:36.341Z,1540
2016-11-18T08:27:46.721Z,1544
2016-11-18T08:28:57.044Z,1676
2016-11-18T08:30:06.756Z,1736
2016-11-18T08:31:16.776Z,1824
2016-11-18T08:32:26.786Z,2072
2016-11-18T08:33:37.131Z,2312
2016-11-18T08:34:47.480Z,2108
2016-11-18T08:35:57.187Z,2000
2016-11-18T08:37:07.216Z,2008
2016-11-18T08:38:17.551Z,2044
2016-11-18T08:39:27.250Z,2096
2016-11-18T08:40:37.261Z,2216
2016-11-18T08:41:47.297Z,2356
2016-11-18T08:42:57.030Z,2332
2016-11-18T08:44:07.366Z,2028
2016-11-18T08:45:17.710Z,1944
2016-11-18T08:46:28.045Z,2024
2016-11-18T08:47:38.382Z,2080
2016-11-18T08:48:48.733Z,1968
2016-11-18T08:49:58.790Z,2004
2016-11-18T08:51:09.117Z,2056
2016-11-18T08:52:19.458Z,2112
2016-11-18T08:53:29.787Z,1940
2016-11-18T08:54:40.125Z,1884
2016-11-18T08:55:49.834Z,1908
2016-11-18T08:56:59.547Z,1792
2016-11-18T08:58:09.567Z,1812
2016-11-18T08:59:19.913Z,1676
2016-11-18T09:00:30.236Z,1696
2016-11-18T09:01:40.572Z,1800
2016-11-18T09:02:50.894Z,1868
2016-11-18T09:04:00.919Z,1864
2016-11-18T09:05:10.957Z,1716
2016-11-18T09:06:20.979Z,1556
2016-11-18T09:07:31.319Z,1460
2016-11-18T09:08:41.328Z,1396
2016-11-18T09:09:51.659Z,1292
2016-11-18T09:11:01.675Z,1316
2016-11-18T09:12:11.719Z,1328
2016-11-18T09:13:21.753Z,1352
2016-11-18T09:14:32.095Z,1456
2016-11-18T09:15:42.432Z,1520
2016-11-18T09:16:52.444Z,1468
2016-11-18T09:18:02.467Z,1484
2016-11-18T09:19:12.808Z,1612
2016-11-18T09:20:22.843Z,1668
2016-11-18T09:21:33.182Z,1572
2016-11-18T09:22:43.518Z,1544
2016-11-18T09:23:53.574Z,1600
2016-11-18T09:25:03.901Z,1608
2016-11-18T09:26:13.918Z,1564
2016-11-18T09:27:23.940Z,1536
2016-11-18T09:28:34.283Z,1532
2016-11-18T09:29:44.613Z,1456
2016-11-18T09:30:54.961Z,1488
2016-11-18T09:32:05.297Z,1564
2016-11-18T09:33:15.963Z,1616
2016-11-18T09:34:26.303Z,1716
2016-11-18T09:35:36.617Z,1708
2016-11-18T09:36:46.949Z,1588
2016-11-18T09:37:56.965Z,1604
2016-11-18T09:39:06.982Z,1708
2016-11-18T09:40:16.999Z,1760
2016-11-18T09:41:27.342Z,1808
2016-11-18T09:42:37.042Z,1976
2016-11-18T09:43:47.068Z,2120
2016-11-18T09:44:57.413Z,2200
2016-11-18T09:46:07.752Z,2320
2016-11-18T09:47:18.858Z,2212
2016-11-18T09:48:29.232Z,2216
2016-11-18T09:49:38.961Z,2260
2016-11-18T09:50:49.366Z,2320
2016-11-18T09:51:59.089Z,2296
2016-11-18T09:53:08.822Z,2124
2016-11-18T09:54:19.182Z,2128
2016-11-18T09:55:29.548Z,2196
2016-11-18T09:56:39.276Z,2128
2016-11-18T09:57:49.326Z,2080
2016-11-18T09:58:59.669Z,1960
2016-11-18T10:00:10.076Z,1948
2016-11-18T10:01:20.526Z,1952
2016-11-18T10:02:31.162Z,2076
2016-11-18T10:03:41.573Z,2136
2016-11-18T10:04:51.614Z,2088
2016-11-18T10:06:01.663Z,2020
2016-11-18T10:07:11.695Z,1880
2016-11-18T10:08:22.078Z,2028
2016-11-18T10:09:32.422Z,2048
2016-11-18T10:10:42.790Z,2068
2016-11-18T10:11:52.824Z,2192
2016-11-18T10:13:03.224Z,2332
2016-11-18T10:14:13.575Z,2508
2016-11-18T10:15:23.668Z,2440
2016-11-18T10:16:34.068Z,2660
2016-11-18T10:17:44.447Z,2484
2016-11-18T10:18:54.821Z,2488
2016-11-18T10:20:05.228Z,2568
2016-11-18T10:21:15.585Z,2640
2016-11-18T10:22:26.026Z,2424
2016-11-18T10:23:36.452Z,2440
2016-11-18T10:24:46.859Z,2412
2016-11-18T10:25:57.385Z,2232
2016-11-18T10:27:07.786Z,2164
2016-11-18T10:28:18.281Z,2160
2016-11-18T10:29:28.666Z,2104
2016-11-18T10:30:39.149Z,2272
2016-11-18T10:31:49.509Z,2356
2016-11-18T10:32:59.877Z,2444
2016-11-18T10:34:10.244Z,2540
2016-11-18T10:35:19.991Z,2484
2016-11-18T10:36:30.452Z,2572
2016-11-18T10:37:40.808Z,2240
2016-11-18T10:38:51.193Z,2168
2016-11-18T10:40:01.639Z,2204
2016-11-18T10:41:12.459Z,2300
2016-11-18T10:42:22.913Z,2284
2016-11-18T10:43:33.248Z,2284
2016-11-18T10:44:43.590Z,2656
2016-11-18T10:45:53.661Z,2712
2016-11-18T10:47:03.734Z,2704
2016-11-18T10:48:14.092Z,2676
2016-11-18T10:49:24.462Z,2568
2016-11-18T10:50:34.836Z,2620
2016-11-18T10:51:44.881Z,2824
2016-11-18T10:52:55.271Z,2864
2016-11-18T10:54:05.379Z,2820
2016-11-18T10:55:15.735Z,2820
2016-11-18T10:56:25.777Z,2564
2016-11-18T10:57:35.830Z,2320
2016-11-18T10:58:46.199Z,2288
2016-11-18T10:59:56.537Z,2380
2016-11-18T11:01:06.886Z,2344
2016-11-18T11:02:17.231Z,2312
2016-11-18T11:03:27.577Z,2344
2016-11-18T11:04:37.919Z,2536
2016-11-18T11:05:48.265Z,2468
2016-11-18T11:06:58.326Z,2520
2016-11-18T11:08:08.681Z,2496
2016-11-18T11:09:19.031Z,2584
2016-11-18T11:10:29.072Z,2644
2016-11-18T11:11:39.435Z,2620
2016-11-18T11:12:49.769Z,2528
2016-11-18T11:13:59.806Z,2620
2016-11-18T11:15:10.149Z,2624
2016-11-18T11:16:20.200Z,2584
2016-11-18T11:17:30.533Z,2512
2016-11-18T11:18:40.934Z,2648
2016-11-18T11:19:51.274Z,2524
2016-11-18T11:21:01.615Z,2344
2016-11-18T11:22:11.965Z,2360
2016-11-18T11:23:21.710Z,2284
2016-11-18T11:24:32.344Z,2328
2016-11-18T11:25:42.408Z,2416
2016-11-18T11:26:52.828Z,2424
2016-11-18T11:28:03.171Z,2440
2016-11-18T11:29:13.544Z,2636
2016-11-18T11:30:23.591Z,2744
2016-11-18T11:31:33.322Z,2768
2016-11-18T11:32:43.703Z,2444
2016-11-18T11:33:54.039Z,2376
2016-11-18T11:35:04.077Z,2360
2016-11-18T11:36:14.440Z,2296
2016-11-18T11:37:24.811Z,2196
2016-11-18T11:38:35.149Z,2140
2016-11-18T11:39:44.868Z,2192
2016-11-18T11:40:54.906Z,2208
2016-11-18T11:42:05.246Z,2348
2016-11-18T11:43:15.573Z,2328
2016-11-18T11:44:25.954Z,2296
2016-11-18T11:45:36.291Z,2472
2016-11-18T11:46:46.384Z,2408
2016-11-18T11:47:56.748Z,2432
2016-11-18T11:49:06.822Z,2704
2016-11-18T11:50:17.181Z,2684
2016-11-18T11:51:27.545Z,2544
2016-11-18T11:52:37.874Z,2500
2016-11-18T11:53:48.229Z,2496
2016-11-18T11:54:58.609Z,2512
2016-11-18T11:56:08.721Z,2532
2016-11-18T11:57:19.128Z,2568
2016-11-18T11:58:29.219Z,2588
2016-11-18T11:59:39.639Z,2760
2016-11-18T12:00:49.450Z,2696
2016-11-18T12:01:59.515Z,2660
2016-11-18T12:03:09.661Z,2572
2016-11-18T12:04:20.102Z,2360
2016-11-18T12:05:30.517Z,2268
2016-11-18T12:06:40.978Z,2316
2016-11-18T12:07:51.438Z,2500
2016-11-18T12:09:01.812Z,2636
2016-11-18T12:10:12.180Z,2540
2016-11-18T12:11:22.645Z,2424
2016-11-18T12:12:33.061Z,2328
2016-11-18T12:13:43.662Z,2308
2016-11-18T12:14:54.177Z,2416
2016-11-18T12:16:04.909Z,2356
2016-11-18T12:17:15.457Z,2316
2016-11-18T12:18:25.955Z,2488
2016-11-18T12:19:36.519Z,2412
2016-11-18T12:20:46.901Z,2432
2016-11-18T12:21:56.726Z,2280
2016-11-18T12:23:07.233Z,2300
2016-11-18T12:24:17.714Z,2232
2016-11-18T12:25:28.229Z,2244
2016-11-18T12:26:38.704Z,2284
2016-11-18T12:27:49.279Z,2364
2016-11-18T12:28:59.779Z,2372
2016-11-18T12:30:09.994Z,2428
2016-11-18T12:31:20.386Z,2436
2016-11-18T12:32:30.775Z,2340
2016-11-18T12:33:41.285Z,2468
2016-11-18T12:34:52.017Z,2408
2016-11-18T12:36:02.513Z,2368
2016-11-18T12:37:12.653Z,2288
2016-11-18T12:38:23.175Z,2252
2016-11-18T12:39:33.294Z,2240
2016-11-18T12:40:43.772Z,2164
2016-11-18T12:41:54.327Z,2148
2016-11-18T12:43:04.855Z,2056
2016-11-18T12:44:15.448Z,2236
2016-11-18T12:45:25.867Z,2332
2016-11-18T12:46:36.089Z,2372
2016-11-18T12:47:46.174Z,2292
2016-11-18T12:48:56.729Z,2368
2016-11-18T12:50:06.878Z,2380
2016-11-18T12:51:17.310Z,2348
2016-11-18T12:52:27.832Z,2244
2016-11-18T12:53:38.083Z,2140
2016-11-18T12:54:48.546Z,2176
2016-11-18T12:55:59.214Z,2284
2016-11-18T12:57:09.589Z,2220
2016-11-18T12:58:19.970Z,2160
2016-11-18T12:59:30.448Z,2232
2016-11-18T13:00:40.918Z,2140
2016-11-18T13:01:51.612Z,2152
2016-11-18T13:03:01.984Z,2068
2016-11-18T13:04:12.467Z,2200
2016-11-18T13:05:23.336Z,2168
2016-11-18T13:06:33.540Z,2176
2016-11-18T13:07:43.886Z,2212
2016-11-18T13:08:54.345Z,2244
2016-11-18T13:10:04.901Z,2156
2016-11-18T13:11:15.439Z,2180
2016-11-18T13:12:25.535Z,2196
2016-11-18T13:13:35.672Z,2328
2016-11-18T13:14:46.238Z,2292
2016-11-18T13:15:56.778Z,2444
2016-11-18T13:17:07.558Z,2404
2016-11-18T13:18:18.124Z,2268
2016-11-18T13:19:28.512Z,2340
2016-11-18T13:20:38.754Z,2268
2016-11-18T13:21:49.160Z,2296
2016-11-18T13:22:59.614Z,2160
2016-11-18T13:24:10.196Z,2132
2016-11-18T13:25:19.994Z,2064
2016-11-18T13:26:30.171Z,2236
2016-11-18T13:27:40.368Z,2052
2016-11-18T13:28:51.409Z,2088
2016-11-18T13:30:02.171Z,2212
2016-11-18T13:31:12.642Z,2028
2016-11-18T13:32:22.839Z,2180
2016-11-18T13:33:33.404Z,2128
2016-11-18T13:34:43.892Z,2092
2016-11-18T13:35:54.335Z,2044
2016-11-18T13:37:04.737Z,2096
2016-11-18T13:38:15.092Z,2176
2016-11-18T13:39:25.222Z,2144
2016-11-18T13:40:35.622Z,2168
2016-11-18T13:41:46.201Z,2192
2016-11-18T13:42:56.556Z,2232
2016-11-18T13:44:06.977Z,2248
2016-11-18T13:45:17.544Z,2160
2016-11-18T13:46:27.895Z,2200
2016-11-18T13:47:38.238Z,2124
2016-11-18T13:48:48.290Z,2168
2016-11-18T13:49:58.639Z,2088
2016-11-18T13:51:09.020Z,2172
2016-11-18T13:52:19.380Z,2364
2016-11-18T13:53:29.090Z,2184
2016-11-18T13:54:39.715Z,2260
2016-11-18T13:55:50.124Z,2460
2016-11-18T13:57:00.186Z,2188
2016-11-18T13:58:10.554Z,2404
2016-11-18T13:59:20.924Z,2236
2016-11-18T14:00:31.318Z,2500
2016-11-18T14:01:41.719Z,2516
2016-11-18T14:02:51.754Z,2576
2016-11-18T14:04:02.117Z,2432
2016-11-18T14:05:12.515Z,2360
2016-11-18T14:06:22.876Z,2368
2016-11-18T14:07:33.239Z,2340
2016-11-18T14:08:43.586Z,2216
2016-11-18T14:09:53.965Z,2252
2016-11-18T14:11:03.916Z,2100
2016-11-18T14:12:13.946Z,2048
2016-11-18T14:13:24.295Z,2016
2016-11-18T14:14:34.644Z,1944
2016-11-18T14:15:45.002Z,1924
2016-11-18T14:16:55.364Z,1848
2016-11-18T14:18:05.409Z,1732
2016-11-18T14:19:15.748Z,1668
2016-11-18T14:20:26.098Z,1616
2016-11-18T14:21:36.137Z,1508
2016-11-18T14:22:46.170Z,1416
2016-11-18T14:23:56.222Z,1392
2016-11-18T14:25:06.585Z,1392
2016-11-18T14:26:16.931Z,1300
2016-11-18T14:27:27.272Z,1300
2016-11-18T14:28:37.652Z,1292
2016-11-18T14:29:48.025Z,1252
2016-11-18T14:30:58.382Z,1220
2016-11-18T14:32:08.730Z,1184
2016-11-18T14:33:18.747Z,1140
2016-11-18T14:34:29.154Z,1112
2016-11-18T14:35:39.566Z,1080
2016-11-18T14:36:49.951Z,1044
2016-11-18T14:38:00.317Z,1000
2016-11-18T14:39:10.684Z,968
2016-11-18T14:40:21.019Z,940
2016-11-18T14:41:31.369Z,904
2016-11-18T14:42:41.407Z,872
2016-11-18T14:43:51.456Z,844
2016-11-18T14:45:01.490Z,804
2016-11-18T14:46:11.836Z,776
2016-11-18T14:47:21.863Z,740
2016-11-18T14:48:32.238Z,712
2016-11-18T14:49:42.649Z,676
2016-11-18T14:50:53.054Z,648
2016-11-18T14:52:03.103Z,616
2016-11-18T14:53:13.477Z,588
2016-11-18T14:54:23.540Z,556
2016-11-18T14:55:33.879Z,524
2016-11-18T14:56:44.196Z,496
2016-11-18T14:57:54.574Z,468
2016-11-18T14:59:04.920Z,440
2016-11-18T15:00:14.967Z,408
2016-11-18T15:01:25.324Z,380
2016-11-18T15:02:35.696Z,352
2016-11-18T15:03:46.036Z,324
2016-11-18T15:04:56.069Z,300
2016-11-18T15:06:06.098Z,276
2016-11-18T15:07:16.440Z,252
2016-11-18T15:08:26.793Z,232
2016-11-18T15:09:37.149Z,208
2016-11-18T15:10:47.180Z,184
2016-11-18T15:11:57.192Z,168
2016-11-18T15:13:07.245Z,148
2016-11-18T15:14:21.263Z,132
2016-11-18T15:15:32.738Z,116
2016-11-18T15:16:43.105Z,100
2016-11-18T15:17:53.495Z,88
2016-11-18T15:19:03.918Z,76
2016-11-18T15:20:13.955Z,64
2016-11-18T15:21:23.988Z,60
2016-11-18T15:22:34.012Z,48
2016-11-18T15:23:44.376Z,40
2016-11-18T15:24:54.754Z,36
2016-11-18T15:26:05.159Z,28
2016-11-18T15:27:15.690Z,28
2016-11-18T15:28:25.415Z,20
2016-11-18T15:29:35.757Z,20
2016-11-18T15:30:46.094Z,12
2016-11-18T15:31:56.156Z,12
2016-11-18T15:33:06.495Z,8
2016-11-18T15:34:16.523Z,8
2016-11-18T15:35:26.867Z,8
2016-11-18T15:36:37.219Z,4
2016-11-18T15:37:47.256Z,8
2016-11-18T15:38:57.636Z,4
2016-11-18T15:40:07.972Z,4
2016-11-18T15:41:18.309Z,0
2016-11-18T15:42:28.646Z,4
2016-11-18T15:43:38.980Z,4
2016-11-18T15:44:49.315Z,4
2016-11-18T15:45:59.332Z,4
2016-11-18T15:47:09.706Z,0
2016-11-18T15:48:19.765Z,0
2016-11-18T15:49:30.101Z,0
2016-11-18T15:50:40.438Z,0
2016-11-18T15:51:50.794Z,0
2016-11-18T15:53:00.557Z,0
2016-11-18T15:54:10.912Z,0
2016-11-18T15:55:21.245Z,0
2016-11-18T15:56:31.601Z,0
2016-11-18T15:57:41.946Z,0
2016-11-18T15:58:52.308Z,0
2016-11-18T16:00:02.660Z,0
2016-11-18T16:01:12.989Z,0
2016-11-18T16:02:23.041Z,0
2016-11-18T16:03:33.390Z,0
2016-11-18T16:04:43.733Z,0
2016-11-18T16:05:53.767Z,0
2016-11-18T16:07:04.094Z,0
2016-11-18T16:08:14.414Z,0
2016-11-18T16:09:24.749Z,0
2016-11-18T16:10:35.107Z,0
2016-11-18T16:11:44.867Z,0
2016-11-18T16:12:55.367Z,0
2016-11-18T16:14:09.337Z,0
2016-11-18T16:15:21.997Z,0
2016-11-18T16:16:32.394Z,0
2016-11-18T16:17:44.020Z,0
2016-11-18T16:18:54.596Z,0
2016-11-18T16:20:04.656Z,0
2016-11-18T16:21:21.501Z,0
2016-11-18T16:22:47.497Z,0
2016-11-18T16:24:01.659Z,0
2016-11-18T16:25:23.185Z,0
2016-11-18T16:26:37.865Z,0
2016-11-18T16:27:47.269Z,0
2016-11-18T16:29:02.616Z,0
2016-11-18T16:30:17.574Z,0
2016-11-18T16:31:27.590Z,0
2016-11-18T16:32:37.642Z,0
2016-11-18T16:33:47.668Z,0
2016-11-18T16:34:58.001Z,0
2016-11-18T16:36:08.062Z,0
2016-11-18T16:37:18.404Z,0
2016-11-18T16:38:28.740Z,0
2016-11-18T16:39:39.125Z,0
2016-11-18T16:40:49.468Z,0
2016-11-18T16:41:59.528Z,0
2016-11-18T16:43:09.867Z,0
2016-11-18T16:44:20.223Z,0
2016-11-18T16:45:30.562Z,0
2016-11-18T16:46:40.905Z,0
2016-11-18T16:47:51.295Z,0
2016-11-18T16:49:01.329Z,0
2016-11-18T16:50:11.683Z,0
2016-11-18T16:51:22.034Z,0
2016-11-18T16:52:32.070Z,0
2016-11-18T16:53:42.409Z,0